Time;durP1;ratioP1;P1;durP2;ratioP2;P2;SDS_P1;SDS_P2;PMS_P1;PMS_P2;Temp;Humidity;BMP_temperature;BMP_pressure;BME280_temperature;BME280_humidity;BME280_pressure;Samples;Min_cycle;Max_cycle;Signal;HPM_P1;HPM_P2
2021/11/02 00:02:02;;;;;;;;;;;;;;;-144.99;89.24;52474.59;5113399;28;20503;-61
2021/11/02 00:04:28;;;;;;;;;;;;;;;-144.99;90.37;52494.97;5111669;28;20458;-61
2021/11/02 00:06:55;;;;;;;;;;;;;;;-144.99;90.26;52466.44;5110457;28;19987;-61
2021/11/02 00:09:29;;;;;;;;;;;;;;;-144.99;90.37;52501.09;5113730;28;20023;-61
2021/11/02 00:11:56;;;;;;;;;;;;;;;-144.99;90.42;52501.09;5112764;28;20079;-60
2021/11/02 00:14:25;;;;;;;;;;;;;;;-144.99;91.07;52472.56;5098962;28;20336;-60
2021/11/02 00:16:56;;;;;;;;;;;;;;;-144.99;91.49;52509.25;5103830;28;19976;-60
2021/11/02 00:19:24;;;;;;;;;;;;;;;-144.99;91.82;52505.16;5113851;28;20503;-60
2021/11/02 00:21:53;;;;;;;;;;;;;;;-144.99;92.49;52480.72;5113120;28;20438;-60
2021/11/02 00:24:38;;;;;;;;;;;;;;;-144.99;92.49;52517.41;5113178;28;19987;-59
2021/11/02 00:27:06;;;;;;;;;;;;;;;-144.99;92.54;52513.31;5111955;28;19980;-59
2021/11/02 00:29:33;;;;;;;;;;;;;;;-144.99;93.13;52525.56;5113311;28;19980;-59
2021/11/02 00:31:59;;;;;;;;;;;;;;;-144.99;93.52;52505.16;5113318;28;20452;-60
2021/11/02 00:34:25;;;;;;;;;;;;;;;-144.99;94.19;52456.25;5113364;28;20056;-59
2021/11/02 00:36:52;;;;;;;;;;;;;;;-144.99;94.48;52503.13;5111022;28;19977;-60
2021/11/02 00:39:18;;;;;;;;;;;;;;;-144.99;95.11;52494.97;5113182;28;19990;-60
2021/11/02 00:41:44;;;;;;;;;;;;;;;-144.99;94.57;52505.16;5112790;28;20276;-60
2021/11/02 00:44:12;;;;;;;;;;;;;;;-144.99;94.72;52456.25;5112162;28;20452;-60
2021/11/02 00:46:38;;;;;;;;;;;;;;;-144.99;95.09;52515.34;5111829;28;20397;-63
2021/11/02 00:49:05;;;;;;;;;;;;;;;-144.99;95.54;52505.16;5110823;28;20464;-64
2021/11/02 00:51:32;;;;;;;;;;;;;;;-144.99;95.88;52488.84;5112723;28;20434;-63
2021/11/02 00:53:58;;;;;;;;;;;;;;;-144.99;95.82;52505.16;5111594;28;20055;-63
2021/11/02 00:56:25;;;;;;;;;;;;;;;-144.99;96.39;52492.94;5108620;28;19980;-62
2021/11/02 00:58:51;;;;;;;;;;;;;;;-144.99;96.35;52497.00;5111140;28;20340;-63
2021/11/02 01:01:19;;;;;;;;;;;;;;;-144.99;96.42;52517.41;5112960;28;19984;-64
2021/11/02 01:03:45;;;;;;;;;;;;;;;-144.99;97.25;52454.22;5112324;28;19996;-64
2021/11/02 01:06:11;;;;;;;;;;;;;;;-144.99;97.36;52501.09;5112266;28;20427;-64
2021/11/02 01:08:38;;;;;;;;;;;;;;;-144.99;97.18;52464.41;5110713;28;19980;-64
2021/11/02 01:11:05;;;;;;;;;;;;;;;-144.99;96.80;52468.47;5112398;28;20062;-63
2021/11/02 01:13:32;;;;;;;;;;;;;;;-144.99;96.73;52478.66;5109847;28;19988;-64
2021/11/02 01:15:58;;;;;;;;;;;;;;;-144.99;96.68;52484.78;5109253;28;19977;-63
2021/11/02 01:18:26;;;;;;;;;;;;;;;-144.99;96.38;52492.94;5109590;28;19979;-61
2021/11/02 01:20:53;;;;;;;;;;;;;;;-144.99;96.36;52472.56;5112323;28;19984;-61
2021/11/02 01:23:20;;;;;;;;;;;;;;;-144.99;96.43;52480.72;5111591;28;20411;-61
2021/11/02 01:25:46;;;;;;;;;;;;;;;-144.99;96.68;52472.56;5112695;28;20432;-61
2021/11/02 01:28:12;;;;;;;;;;;;;;;-144.99;96.76;52452.16;5111506;28;19979;-61
2021/11/02 01:30:39;;;;;;;;;;;;;;;-144.99;97.01;52488.84;5114018;28;19959;-61
2021/11/02 01:33:06;;;;;;;;;;;;;;;-144.99;96.92;52497.00;5111850;28;19999;-61
2021/11/02 01:35:34;;;;;;;;;;;;;;;-144.99;96.86;52488.84;5111997;28;20069;-62
2021/11/02 01:38:03;;;;;;;;;;;;;;;-144.99;96.92;52492.94;5110631;28;20365;-62
2021/11/02 01:40:30;;;;;;;;;;;;;;;-144.99;97.18;52505.16;5112146;28;19992;-62
2021/11/02 01:42:56;;;;;;;;;;;;;;;-144.99;96.95;52486.81;5111010;28;20007;-61
2021/11/02 01:45:27;;;;;;;;;;;;;;;-144.99;97.26;52444.03;5106718;28;19979;-61
2021/11/02 01:47:53;;;;;;;;;;;;;;;-144.99;97.07;52488.84;5111635;28;19976;-61
2021/11/02 01:50:20;;;;;;;;;;;;;;;-144.99;97.06;52511.28;5101611;28;19977;-61
2021/11/02 01:52:48;;;;;;;;;;;;;;;-144.99;97.08;52521.47;5111765;28;20598;-60
2021/11/02 01:55:15;;;;;;;;;;;;;;;-144.99;96.50;52484.78;5111097;28;19990;-60
2021/11/02 01:57:42;;;;;;;;;;;;;;;-144.99;96.57;52488.84;5109500;28;19987;-61
2021/11/02 02:00:10;;;;;;;;;;;;;;;-144.99;96.99;52484.78;5097635;28;20004;-60
2021/11/02 02:02:39;;;;;;;;;;;;;;;-144.99;96.94;52468.47;5111808;28;20180;-62
2021/11/02 02:05:09;;;;;;;;;;;;;;;-144.99;97.54;52537.78;5110875;28;19976;-61
2021/11/02 02:07:39;;;;;;;;;;;;;;;-144.99;97.13;52476.63;5110749;28;20402;-60
2021/11/02 02:10:08;;;;;;;;;;;;;;;-144.99;97.37;52472.56;5102115;28;19981;-63
2021/11/02 02:12:44;;;;;;;;;;;;;;;-144.99;97.41;52480.72;5109232;28;19996;-61
2021/11/02 02:15:13;;;;;;;;;;;;;;;-144.99;97.47;52458.28;5108372;28;19972;-59
2021/11/02 02:17:49;;;;;;;;;;;;;;;-144.99;97.71;52460.31;5106697;28;19980;-64
2021/11/02 02:20:24;;;;;;;;;;;;;;;-144.99;97.60;52492.94;5106107;28;19976;-63
2021/11/02 02:22:58;;;;;;;;;;;;;;;-144.99;97.84;52480.72;5109961;28;20098;-62
2021/11/02 02:25:32;;;;;;;;;;;;;;;-144.99;97.86;52468.47;5111145;28;20067;-63
2021/11/02 02:28:06;;;;;;;;;;;;;;;-144.99;97.98;52492.94;5110579;28;19991;-61
2021/11/02 02:30:35;;;;;;;;;;;;;;;-144.99;98.10;52488.84;5108837;28;19972;-62
2021/11/02 02:33:02;;;;;;;;;;;;;;;-144.99;97.75;52497.00;5109412;28;20484;-62
2021/11/02 02:35:29;;;;;;;;;;;;;;;-144.99;97.80;52505.16;5111044;28;19958;-66
2021/11/02 02:37:56;;;;;;;;;;;;;;;-144.99;97.70;52513.31;5108788;28;20521;-66
2021/11/02 02:40:24;;;;;;;;;;;;;;;-144.99;97.78;52444.03;5103832;28;20023;-65
2021/11/02 02:42:51;;;;;;;;;;;;;;;-144.99;98.33;52488.84;5108208;28;19992;-65
2021/11/02 02:45:20;;;;;;;;;;;;;;;-144.99;98.30;52456.25;5104127;28;20527;-59
2021/11/02 02:47:47;;;;;;;;;;;;;;;-144.99;98.30;52460.31;5105760;28;19983;-60
2021/11/02 02:50:15;;;;;;;;;;;;;;;-144.99;98.16;52464.41;5109429;28;19980;-59
2021/11/02 02:52:43;;;;;;;;;;;;;;;-144.99;98.16;52497.00;5110209;28;20424;-59
2021/11/02 02:55:11;;;;;;;;;;;;;;;-144.99;98.49;52456.25;5109887;28;19991;-57
2021/11/02 02:57:38;;;;;;;;;;;;;;;-144.99;98.49;52474.59;5104810;28;19972;-58
2021/11/02 03:00:05;;;;;;;;;;;;;;;-144.99;98.79;52488.84;5109155;28;19983;-60
2021/11/02 03:02:34;;;;;;;;;;;;;;;-144.99;99.41;52476.63;5110407;28;20007;-58
2021/11/02 03:05:03;;;;;;;;;;;;;;;-144.99;99.55;52513.31;5110610;28;20439;-58
2021/11/02 03:07:29;;;;;;;;;;;;;;;-144.99;99.71;52472.56;5110698;28;20008;-59
2021/11/02 03:09:55;;;;;;;;;;;;;;;-144.99;100.00;52513.31;5109387;28;19980;-58
2021/11/02 03:12:25;;;;;;;;;;;;;;;-144.99;99.98;52519.44;5110289;28;20038;-60
2021/11/02 03:15:04;;;;;;;;;;;;;;;-144.99;100.00;52499.06;5110189;28;20006;-60
2021/11/02 03:17:32;;;;;;;;;;;;;;;-144.99;100.00;52517.41;5105552;28;20038;-60
2021/11/02 03:45:03;;;;;;;;;;;;;;;-144.99;100.00;52490.91;5112212;28;19987;-58
2021/11/02 03:50:24;;;;;;;;;;;;;;;-144.99;100.00;52505.16;5112657;28;19983;-60
2021/11/02 03:58:21;;;;;;;;;;;;;;;-144.99;100.00;52468.47;5085462;28;20409;-65
2021/11/02 04:28:50;;;;;;;;;;;;;;;-144.99;100.00;52533.69;5060464;28;19987;-65
2021/11/02 05:08:03;;;;;;;;;;;;;;;-144.99;100.00;52458.28;5110159;28;20100;-66
2021/11/02 05:10:51;;;;;;;;;;;;;;;-144.99;100.00;52464.41;5109559;28;19981;-68
2021/11/02 05:49:11;;;;;;;;;;;;;;;-144.99;100.00;52476.63;5084482;28;19983;-66
2021/11/02 05:52:11;;;;;;;;;;;;;;;-144.99;100.00;52525.56;5102281;28;20063;-66
2021/11/02 05:57:37;;;;;;;;;;;;;;;-144.99;100.00;52480.72;5092636;28;20449;-67
2021/11/02 06:00:09;;;;;;;;;;;;;;;-144.99;100.00;52497.00;5094386;28;19991;-69
2021/11/02 06:05:52;;;;;;;;;;;;;;;-144.99;100.00;52517.41;5049976;28;20322;-67
2021/11/02 06:08:37;;;;;;;;;;;;;;;-144.99;100.00;52509.25;5045480;28;20337;-66
2021/11/02 06:28:05;;;;;;;;;;;;;;;-144.99;100.00;52472.56;5093702;28;20372;-67
2021/11/02 06:30:38;;;;;;;;;;;;;;;-144.99;100.00;52448.09;5112016;28;19984;-68
2021/11/02 06:33:08;;;;;;;;;;;;;;;-144.99;100.00;52501.09;5109940;28;20032;-67
2021/11/02 06:35:40;;;;;;;;;;;;;;;-144.99;100.00;52501.09;5107523;28;20047;-70
2021/11/02 06:43:56;;;;;;;;;;;;;;;-144.99;100.00;52470.50;5114467;28;20003;-71
2021/11/02 06:49:32;;;;;;;;;;;;;;;-144.99;100.00;52468.47;5089833;28;20450;-71
2021/11/02 06:58:01;;;;;;;;;;;;;;;-144.99;100.00;52505.16;5068141;28;20034;-71
2021/11/02 07:17:30;;;;;;;;;;;;;;;-144.99;100.00;52488.84;5089348;28;20022;-70
2021/11/02 07:20:02;;;;;;;;;;;;;;;-144.99;100.00;52476.63;5093867;28;20023;-70
2021/11/02 07:22:46;;;;;;;;;;;;;;;-144.99;100.00;52497.00;5091021;28;20475;-70
2021/11/02 07:25:26;;;;;;;;;;;;;;;-144.99;100.00;52452.16;5077560;28;19991;-70
2021/11/02 08:45:35;;;;;;;;;;;;;;;-144.99;83.55;52431.78;5088046;28;20022;-71
2021/11/02 08:48:03;;;;;;;;;;;;;;;-144.99;83.63;52411.41;5088531;28;19980;-71
2021/11/02 08:50:33;;;;;;;;;;;;;;;-144.99;84.10;52411.41;5088275;28;20023;-70
2021/11/02 08:53:01;;;;;;;;;;;;;;;-144.99;84.10;52423.63;5097735;28;19992;-70
2021/11/02 08:55:27;;;;;;;;;;;;;;;-144.99;83.26;52427.72;5094388;28;19996;-71
2021/11/02 08:57:56;;;;;;;;;;;;;;;-144.99;83.73;52415.47;5086430;28;19992;-70
2021/11/02 09:00:24;;;;;;;;;;;;;;;-144.99;84.48;52450.13;5087760;28;19987;-70
2021/11/02 09:02:51;;;;;;;;;;;;;;;-144.99;83.83;52415.47;5088295;28;20003;-70
2021/11/02 09:05:20;;;;;;;;;;;;;;;-144.99;82.88;52415.47;5113479;28;20023;-70
2021/11/02 09:07:46;;;;;;;;;;;;;;;-144.99;82.25;52415.47;5123273;28;19984;-70
2021/11/02 09:10:14;;;;;;;;;;;;;;;-144.99;81.37;52391.03;5120768;28;19981;-70
2021/11/02 09:12:42;;;;;;;;;;;;;;;-144.99;80.71;52407.31;5101978;28;20017;-69
2021/11/02 09:15:09;;;;;;;;;;;;;;;-144.99;79.89;52435.88;5087554;28;19988;-69
2021/11/02 09:17:42;;;;;;;;;;;;;;;-144.99;80.09;52415.47;5087864;28;20161;-70
2021/11/02 09:20:09;;;;;;;;;;;;;;;-144.99;80.24;52444.03;5087835;28;20090;-70
2021/11/02 09:22:36;;;;;;;;;;;;;;;-144.99;80.19;52435.88;5083489;28;19999;-70
2021/11/02 09:25:02;;;;;;;;;;;;;;;-144.99;80.35;52425.66;5099007;28;19950;-70
2021/11/02 09:27:28;;;;;;;;;;;;;;;-144.99;79.90;52439.94;5111563;28;20035;-70
2021/11/02 09:29:55;;;;;;;;;;;;;;;-144.99;79.90;52386.94;5111869;28;20003;-70
2021/11/02 09:32:22;;;;;;;;;;;;;;;-144.99;79.68;52419.56;5093402;28;20004;-69
2021/11/02 09:34:50;;;;;;;;;;;;;;;-144.99;79.19;52431.78;5098332;28;19979;-69
2021/11/02 09:37:18;;;;;;;;;;;;;;;-144.99;78.17;52419.56;5103500;28;20007;-70
2021/11/02 09:39:46;;;;;;;;;;;;;;;-144.99;76.77;52413.44;5105195;28;20011;-68
2021/11/02 09:42:16;;;;;;;;;;;;;;;-144.99;76.54;52413.44;5103567;28;20008;-70
2021/11/02 09:44:53;;;;;;;;;;;;;;;-144.99;76.88;52448.09;5098459;28;19976;-70
2021/11/02 09:47:41;;;;;;;;;;;;;;;-144.99;77.10;52372.69;5091171;28;19987;-70
2021/11/02 09:50:21;;;;;;;;;;;;;;;-144.99;76.64;52419.56;5097161;28;19981;-69
2021/11/02 09:52:59;;;;;;;;;;;;;;;-144.99;75.82;52427.72;5102539;28;20003;-70
2021/11/02 09:55:42;;;;;;;;;;;;;;;-144.99;75.38;52427.72;5101073;28;19976;-69
2021/11/02 09:58:21;;;;;;;;;;;;;;;-144.99;75.60;52386.94;5094454;28;19976;-69
2021/11/02 10:01:04;;;;;;;;;;;;;;;-144.99;75.44;52374.72;5101069;28;19962;-69
2021/11/02 10:03:47;;;;;;;;;;;;;;;-144.99;74.16;52403.25;5092223;28;19988;-69
2021/11/02 10:06:33;;;;;;;;;;;;;;;-144.99;73.95;52376.75;5090557;28;19980;-69
2021/11/02 10:09:07;;;;;;;;;;;;;;;-144.99;73.08;52382.88;5089930;28;20063;-69
2021/11/02 10:11:38;;;;;;;;;;;;;;;-144.99;69.61;52297.25;5089497;28;19991;-69
2021/11/02 10:14:32;;;;;;;;;;;;;;;-144.99;63.80;52256.50;5088237;28;20365;-69
2021/11/02 10:17:05;;;;;;;;;;;;;;;-144.99;59.34;52236.13;5089028;28;19997;-68
2021/11/02 10:19:47;;;;;;;;;;;;;;;-144.99;55.30;52138.28;5088409;28;20063;-69
2021/11/02 10:22:31;;;;;;;;;;;;;;;-144.99;51.68;52146.44;5094491;28;19999;-68
2021/11/02 10:25:05;;;;;;;;;;;;;;;-144.99;49.31;52215.75;5098136;28;19980;-68
2021/11/02 10:27:40;;;;;;;;;;;;;;;-144.99;50.21;52276.88;5102179;28;20325;-69
2021/11/02 10:30:27;;;;;;;;;;;;;;;-144.99;51.91;52295.22;5109740;28;20103;-69
2021/11/02 10:32:57;;;;;;;;;;;;;;;-144.99;52.12;52134.22;5097696;28;20711;-68
2021/11/02 10:35:30;;;;;;;;;;;;;;;-144.99;49.19;52126.06;5088094;28;19976;-70
2021/11/02 10:38:00;;;;;;;;;;;;;;;-144.99;46.97;52064.91;5108396;28;20004;-68
2021/11/02 10:40:32;;;;;;;;;;;;;;;-144.99;44.73;52073.06;5109732;28;19980;-70
2021/11/02 10:43:13;;;;;;;;;;;;;;;-144.99;42.28;52064.91;5102414;28;19992;-67
2021/11/02 10:45:48;;;;;;;;;;;;;;;-144.99;42.08;52081.22;5088087;28;20505;-70
2021/11/02 10:48:17;;;;;;;;;;;;;;;-144.99;41.04;52140.31;5088638;28;19988;-70
2021/11/02 10:50:46;;;;;;;;;;;;;;;-144.99;41.46;52126.06;5088473;28;20015;-68
2021/11/02 10:53:17;;;;;;;;;;;;;;;-144.99;42.24;52117.91;5100076;28;20000;-68
2021/11/02 10:55:49;;;;;;;;;;;;;;;-144.99;42.76;52138.28;5103719;28;19973;-69
2021/11/02 10:58:32;;;;;;;;;;;;;;;-144.99;42.26;52117.91;5088569;28;19989;-68
2021/11/02 11:01:01;;;;;;;;;;;;;;;-144.99;43.36;52170.91;5075691;28;20433;-68
2021/11/02 11:03:28;;;;;;;;;;;;;;;-144.99;45.13;52244.28;5088273;28;20294;-68
2021/11/02 11:05:56;;;;;;;;;;;;;;;-144.99;45.28;52183.13;5088095;28;20024;-68
2021/11/02 11:08:25;;;;;;;;;;;;;;;-144.99;44.22;52113.84;5090896;28;19980;-68
2021/11/02 11:10:54;;;;;;;;;;;;;;;-144.99;43.21;52113.84;5108661;28;20449;-68
2021/11/02 11:13:21;;;;;;;;;;;;;;;-144.99;42.89;52124.03;5097653;28;19996;-69
2021/11/02 11:15:48;;;;;;;;;;;;;;;-144.99;42.44;52109.75;5088313;28;20089;-68
2021/11/02 11:18:19;;;;;;;;;;;;;;;-144.99;42.03;52179.06;5087878;28;20016;-68
2021/11/02 11:20:48;;;;;;;;;;;;;;;-144.99;42.25;52215.75;5092335;28;19977;-69
2021/11/02 11:23:14;;;;;;;;;;;;;;;-144.99;42.58;52244.28;5079336;28;20001;-69
2021/11/02 11:25:44;;;;;;;;;;;;;;;-144.99;44.19;52258.53;5087750;28;19981;-69
2021/11/02 11:28:13;;;;;;;;;;;;;;;-144.99;44.59;52260.56;5087718;28;20189;-68
2021/11/02 11:30:40;;;;;;;;;;;;;;;-144.99;44.99;52299.31;5101214;28;19976;-69
2021/11/02 11:33:07;;;;;;;;;;;;;;;-144.99;44.81;52095.50;5097075;28;19977;-69
2021/11/02 11:35:35;;;;;;;;;;;;;;;-144.99;44.19;52174.97;5087550;28;20752;-69
2021/11/02 11:38:03;;;;;;;;;;;;;;;-144.99;43.39;52081.22;5087333;28;20472;-69
2021/11/02 11:40:30;;;;;;;;;;;;;;;-144.99;42.39;52191.28;5089139;28;20003;-69
2021/11/02 11:42:57;;;;;;;;;;;;;;;-144.99;40.92;52179.06;5101009;28;20536;-69
2021/11/02 11:45:25;;;;;;;;;;;;;;;-144.99;41.54;52236.13;5086734;28;20069;-69
2021/11/02 11:48:04;;;;;;;;;;;;;;;-144.99;42.58;52280.97;5087198;28;19976;-69
2021/11/02 11:50:31;;;;;;;;;;;;;;;-144.99;44.25;52342.09;5090743;28;20080;-69
2021/11/02 11:53:00;;;;;;;;;;;;;;;-144.99;44.93;52317.66;5107214;28;20007;-69
2021/11/02 11:55:27;;;;;;;;;;;;;;;-144.99;46.85;52364.53;5102791;28;20320;-69
2021/11/02 11:58:05;;;;;;;;;;;;;;;-144.99;48.39;52374.72;5085748;28;20003;-69
2021/11/02 12:00:33;;;;;;;;;;;;;;;-144.99;50.02;52372.69;5090878;28;20321;-69
2021/11/02 12:03:01;;;;;;;;;;;;;;;-144.99;50.16;52378.78;5098746;28;20447;-69
2021/11/02 12:05:30;;;;;;;;;;;;;;;-144.99;51.08;52448.09;5107340;28;20082;-69
2021/11/02 12:08:04;;;;;;;;;;;;;;;-144.99;52.55;52419.56;5107256;28;19984;-69
2021/11/02 12:10:31;;;;;;;;;;;;;;;-144.99;52.64;52399.19;5103312;28;19976;-69
2021/11/02 12:13:00;;;;;;;;;;;;;;;-144.99;52.93;52338.03;5092037;28;19996;-69
2021/11/02 12:15:38;;;;;;;;;;;;;;;-144.99;51.77;52329.88;5081741;28;20409;-68
2021/11/02 12:18:07;;;;;;;;;;;;;;;-144.99;51.80;52333.94;5081478;28;20083;-68
2021/11/02 12:20:34;;;;;;;;;;;;;;;-144.99;50.25;52221.84;5086998;28;19987;-68
2021/11/02 12:23:04;;;;;;;;;;;;;;;-144.99;47.23;52227.97;5083320;28;20004;-69
2021/11/02 12:25:34;;;;;;;;;;;;;;;-144.99;46.28;52268.72;5107236;28;20082;-68
2021/11/02 12:28:00;;;;;;;;;;;;;;;-144.99;45.26;52252.44;5106514;28;19984;-69
2021/11/02 12:30:27;;;;;;;;;;;;;;;-144.99;43.95;52146.44;5106777;28;19984;-69
2021/11/02 12:32:56;;;;;;;;;;;;;;;-144.99;42.28;52117.91;5089423;28;20063;-68
2021/11/02 12:35:52;;;;;;;;;;;;;;;-144.99;41.07;52093.44;5086802;28;19977;-69
2021/11/02 12:38:27;;;;;;;;;;;;;;;-144.99;39.54;52138.28;5075417;28;20183;-68
2021/11/02 12:40:54;;;;;;;;;;;;;;;-144.99;38.92;52179.06;5086141;28;19984;-68
2021/11/02 12:43:21;;;;;;;;;;;;;;;-144.99;38.82;52083.25;5087154;28;19992;-68
2021/11/02 12:45:48;;;;;;;;;;;;;;;-144.99;38.05;52064.91;5086487;28;19985;-68
2021/11/02 12:48:14;;;;;;;;;;;;;;;-144.99;37.60;52024.16;5086711;28;19980;-68
2021/11/02 12:50:42;;;;;;;;;;;;;;;-144.99;36.67;52028.22;5105051;28;19969;-67
2021/11/02 12:53:08;;;;;;;;;;;;;;;-144.99;36.29;52003.78;5093214;28;19997;-68
2021/11/02 12:55:36;;;;;;;;;;;;;;;-144.99;35.69;52018.03;5098365;28;19977;-68
2021/11/02 12:58:14;;;;;;;;;;;;;;;-144.99;34.93;51995.63;5089162;28;20410;-68
2021/11/02 13:00:43;;;;;;;;;;;;;;;-144.99;34.59;51985.44;5096740;28;19980;-69
2021/11/02 13:03:14;;;;;;;;;;;;;;;-144.99;34.43;51993.59;5100492;28;20003;-70
2021/11/02 13:05:41;;;;;;;;;;;;;;;-144.99;34.44;52024.16;5113187;28;19987;-68
2021/11/02 13:08:12;;;;;;;;;;;;;;;-144.99;33.93;52032.31;5110494;28;19984;-68
2021/11/02 13:10:41;;;;;;;;;;;;;;;-144.99;34.24;52069.00;5104758;28;19977;-69
2021/11/02 13:13:08;;;;;;;;;;;;;;;-144.99;34.66;52056.78;5101428;28;19993;-68
2021/11/02 13:15:48;;;;;;;;;;;;;;;-144.99;34.96;52073.06;5090459;28;19976;-68
2021/11/02 13:18:27;;;;;;;;;;;;;;;-144.99;34.54;52085.31;5091802;28;20000;-67
2021/11/02 13:21:00;;;;;;;;;;;;;;;-144.99;34.67;52105.69;5099359;28;19991;-68
2021/11/02 13:23:36;;;;;;;;;;;;;;;-144.99;35.11;52105.69;5081682;28;20022;-68
2021/11/02 13:26:14;;;;;;;;;;;;;;;-144.99;34.68;52093.44;5091523;28;20479;-68
2021/11/02 13:28:41;;;;;;;;;;;;;;;-144.99;35.13;52073.06;5110643;28;19987;-68
2021/11/02 13:31:10;;;;;;;;;;;;;;;-144.99;35.17;52117.91;5102469;28;20015;-68
2021/11/02 13:33:36;;;;;;;;;;;;;;;-144.99;34.85;52109.75;5094539;28;20008;-68
2021/11/02 13:36:04;;;;;;;;;;;;;;;-144.99;34.40;52066.97;5090003;28;19980;-68
2021/11/02 13:38:35;;;;;;;;;;;;;;;-144.99;33.73;52048.63;5090527;28;20058;-68
2021/11/02 13:41:04;;;;;;;;;;;;;;;-144.99;34.05;52115.88;5091634;28;19980;-68
2021/11/02 13:43:32;;;;;;;;;;;;;;;-144.99;33.47;52121.97;5093131;28;20365;-68
2021/11/02 13:45:59;;;;;;;;;;;;;;;-144.99;34.75;52199.44;5092112;28;19973;-69
2021/11/02 13:48:27;;;;;;;;;;;;;;;-144.99;35.47;52174.97;5086381;28;20067;-69
2021/11/02 13:50:53;;;;;;;;;;;;;;;-144.99;35.51;52138.28;5089131;28;19980;-69
2021/11/02 13:53:20;;;;;;;;;;;;;;;-144.99;35.42;52160.72;5083241;28;19992;-69
2021/11/02 13:55:47;;;;;;;;;;;;;;;-144.99;36.48;52191.28;5088364;28;20405;-69
2021/11/02 13:58:13;;;;;;;;;;;;;;;-144.99;36.46;52179.06;5088657;28;19993;-69
2021/11/02 14:00:41;;;;;;;;;;;;;;;-144.99;36.52;52195.34;5088356;28;21069;-69
2021/11/02 14:03:09;;;;;;;;;;;;;;;-144.99;36.30;52187.19;5102833;28;20364;-69
2021/11/02 14:05:37;;;;;;;;;;;;;;;-144.99;36.68;52174.97;5104960;28;20026;-69
2021/11/02 14:08:03;;;;;;;;;;;;;;;-144.99;37.22;52191.28;5100220;28;19977;-69
2021/11/02 14:10:30;;;;;;;;;;;;;;;-144.99;37.76;52211.66;5090337;28;20156;-68
2021/11/02 14:12:56;;;;;;;;;;;;;;;-144.99;37.61;52203.50;5095497;28;20369;-67
2021/11/02 14:15:23;;;;;;;;;;;;;;;-144.99;37.81;52209.63;5088994;28;20485;-69
2021/11/02 14:18:08;;;;;;;;;;;;;;;-144.99;38.20;52223.88;4739366;28;10000284;-69
2021/11/02 14:20:36;;;;;;;;;;;;;;;-144.99;38.47;52272.81;5101563;28;20012;-69
2021/11/02 14:23:03;;;;;;;;;;;;;;;-144.99;38.60;52240.19;5092600;28;20058;-68
2021/11/02 14:25:31;;;;;;;;;;;;;;;-144.99;38.58;52309.50;5089474;28;19984;-68
2021/11/02 14:27:58;;;;;;;;;;;;;;;-144.99;39.04;52319.69;5089714;28;20003;-68
2021/11/02 14:30:25;;;;;;;;;;;;;;;-144.99;39.40;52344.16;5090908;28;19977;-68
2021/11/02 14:32:54;;;;;;;;;;;;;;;-144.99;39.41;52346.19;5100820;28;20488;-68
2021/11/02 14:35:45;;;;;;;;;;;;;;;-144.99;39.41;52344.16;5092590;28;19983;-68
2021/11/02 14:38:13;;;;;;;;;;;;;;;-144.99;40.02;52325.81;5081658;28;20031;-68
2021/11/02 14:40:40;;;;;;;;;;;;;;;-144.99;40.56;52358.41;5095224;28;19980;-68
2021/11/02 14:43:22;;;;;;;;;;;;;;;-144.99;40.71;52403.25;5104391;28;19996;-68
2021/11/02 14:45:49;;;;;;;;;;;;;;;-144.99;40.50;52338.03;5091637;28;19980;-68
2021/11/02 14:48:35;;;;;;;;;;;;;;;-144.99;41.43;52362.50;5092320;28;20006;-68
2021/11/02 14:51:03;;;;;;;;;;;;;;;-144.99;43.74;52423.63;5080497;28;19980;-68
2021/11/02 14:53:34;;;;;;;;;;;;;;;-144.99;45.41;52470.50;5091593;28;19997;-68
2021/11/02 14:56:02;;;;;;;;;;;;;;;-144.99;47.24;52444.03;5091188;28;20019;-68
2021/11/02 14:58:55;;;;;;;;;;;;;;;-144.99;49.32;52464.41;5090911;28;20473;-68
2021/11/02 15:01:25;;;;;;;;;;;;;;;-144.99;51.27;52439.94;5055438;28;19980;-68
2021/11/02 15:03:55;;;;;;;;;;;;;;;-144.99;52.66;52480.72;5091935;28;20003;-68
2021/11/02 15:06:27;;;;;;;;;;;;;;;-144.99;54.20;52488.84;5092971;28;20177;-69
2021/11/02 15:08:54;;;;;;;;;;;;;;;-144.99;55.37;52476.63;5097775;28;20329;-69
2021/11/02 15:11:20;;;;;;;;;;;;;;;-144.99;56.71;52509.25;5111638;28;19987;-69
2021/11/02 15:13:48;;;;;;;;;;;;;;;-144.99;57.12;52419.56;5099300;28;19992;-69
2021/11/02 15:16:14;;;;;;;;;;;;;;;-144.99;58.42;52488.84;5091415;28;19976;-69
2021/11/02 15:18:42;;;;;;;;;;;;;;;-144.99;59.41;52521.47;5091641;28;20056;-69
2021/11/02 15:21:09;;;;;;;;;;;;;;;-144.99;60.38;52497.00;5090332;28;20061;-69
2021/11/02 15:23:44;;;;;;;;;;;;;;;-144.99;61.16;52492.94;5090665;28;20001;-69
2021/11/02 15:26:11;;;;;;;;;;;;;;;-144.99;61.69;52509.25;5090877;28;20229;-69
2021/11/02 15:28:41;;;;;;;;;;;;;;;-144.99;62.68;52492.94;5090435;28;19973;-69
2021/11/02 15:31:07;;;;;;;;;;;;;;;-144.99;63.34;52488.84;5107854;28;20006;-69
2021/11/02 15:33:34;;;;;;;;;;;;;;;-144.99;63.93;52497.00;5095660;28;19992;-69
2021/11/02 15:36:24;;;;;;;;;;;;;;;-144.99;64.81;52460.31;5092410;28;20576;-69
2021/11/02 15:39:03;;;;;;;;;;;;;;;-144.99;65.27;52490.91;5079367;28;19996;-69
2021/11/02 15:41:30;;;;;;;;;;;;;;;-144.99;65.92;52488.84;5080236;28;19980;-69
2021/11/02 15:43:58;;;;;;;;;;;;;;;-144.99;66.46;52480.72;5090433;28;19996;-69
2021/11/02 15:46:33;;;;;;;;;;;;;;;-144.99;66.78;52501.09;5090786;28;20360;-69
2021/11/02 15:48:59;;;;;;;;;;;;;;;-144.99;67.53;52484.78;5090939;28;19999;-69
2021/11/02 15:51:29;;;;;;;;;;;;;;;-144.99;68.06;52433.81;5090802;28;20424;-69
2021/11/02 15:53:56;;;;;;;;;;;;;;;-144.99;69.15;52480.72;5090718;28;19961;-69
2021/11/02 15:56:28;;;;;;;;;;;;;;;-144.99;69.57;52470.50;5090304;28;19972;-71
2021/11/02 15:58:57;;;;;;;;;;;;;;;-144.99;70.33;52460.31;5078496;22;19997;-65
2021/11/02 16:01:31;;;;;;;;;;;;;;;-144.99;70.87;52488.84;5046171;28;19996;-65
2021/11/02 16:04:06;;;;;;;;;;;;;;;-144.99;71.88;52486.81;5050051;28;19997;-65
2021/11/02 16:06:32;;;;;;;;;;;;;;;-144.99;72.10;52480.72;5049731;28;19981;-66
2021/11/02 16:09:01;;;;;;;;;;;;;;;-144.99;72.76;52448.09;5050189;28;19985;-66
2021/11/02 16:11:28;;;;;;;;;;;;;;;-144.99;73.45;52488.84;5034100;28;20045;-66
2021/11/02 16:13:55;;;;;;;;;;;;;;;-144.99;74.13;52472.56;5039412;28;19993;-66
2021/11/02 16:16:21;;;;;;;;;;;;;;;-144.99;74.22;52472.56;5040462;28;19980;-66
2021/11/02 16:18:48;;;;;;;;;;;;;;;-144.99;74.67;52501.09;5030042;28;20001;-65
2021/11/02 16:21:15;;;;;;;;;;;;;;;-144.99;75.31;52482.75;5030259;28;19978;-65
2021/11/02 16:23:42;;;;;;;;;;;;;;;-144.99;75.98;52476.63;5030054;28;20458;-65
2021/11/02 16:26:13;;;;;;;;;;;;;;;-144.99;76.85;52480.72;5030789;28;19986;-67
2021/11/02 16:28:41;;;;;;;;;;;;;;;-144.99;77.46;52517.41;5030584;28;20040;-66
2021/11/02 16:31:08;;;;;;;;;;;;;;;-144.99;78.38;52501.09;5031288;28;19981;-65
2021/11/02 16:33:36;;;;;;;;;;;;;;;-144.99;79.44;52484.78;5030506;28;19993;-65
2021/11/02 16:36:15;;;;;;;;;;;;;;;-144.99;80.09;52484.78;5039141;28;19989;-66
2021/11/02 16:38:41;;;;;;;;;;;;;;;-144.99;81.76;52470.50;5030556;28;20155;-67
2021/11/02 16:41:17;;;;;;;;;;;;;;;-144.99;82.03;52474.59;5030344;28;20608;-66
2021/11/02 16:43:50;;;;;;;;;;;;;;;-144.99;83.06;52484.78;5041026;28;20000;-68
2021/11/02 16:46:22;;;;;;;;;;;;;;;-144.99;83.36;52460.31;5030401;28;19981;-66
2021/11/02 16:48:48;;;;;;;;;;;;;;;-144.99;84.61;52464.41;5032542;28;19973;-67
2021/11/02 16:51:15;;;;;;;;;;;;;;;-144.99;85.31;52456.25;5038685;28;19988;-65
2021/11/02 16:53:42;;;;;;;;;;;;;;;-144.99;86.17;52460.31;5046389;28;20008;-66
2021/11/02 16:56:15;;;;;;;;;;;;;;;-144.99;86.52;52484.78;5033090;28;19983;-66
2021/11/02 16:58:46;;;;;;;;;;;;;;;-144.99;87.41;52484.78;5038999;28;19986;-66
2021/11/02 17:01:30;;;;;;;;;;;;;;;-144.99;87.84;52468.47;5039258;28;19977;-65
2021/11/02 17:04:09;;;;;;;;;;;;;;;-144.99;88.63;52509.25;5049309;28;20560;-66
2021/11/02 17:06:36;;;;;;;;;;;;;;;-144.99;88.71;52497.00;5049396;28;20335;-65
2021/11/02 17:09:09;;;;;;;;;;;;;;;-144.99;88.77;52478.66;5050748;28;19974;-65